Time;durP1;ratioP1;P1;durP2;ratioP2;P2;SDS_P1;SDS_P2;PMS_P1;PMS_P2;Temp;Humidity;BMP_temperature;BMP_pressure;BME280_temperature;BME280_humidity;BME280_pressure;Samples;Min_cycle;Max_cycle;Signal;HPM_P1;HPM_P2
2023/07/17 00:01:33;;;;;;;6.68;4.10;;;19.00;99.90;;;;;;5106437;28;20031;-72
2023/07/17 00:03:59;;;;;;;6.30;3.55;;;18.90;99.90;;;;;;5103924;28;20135;-71
2023/07/17 00:06:25;;;;;;;8.95;4.13;;;18.80;99.90;;;;;;5106588;28;20207;-72
2023/07/17 00:08:50;;;;;;;7.40;3.83;;;18.70;99.90;;;;;;5108721;28;20490;-71
2023/07/17 00:11:16;;;;;;;9.77;4.25;;;18.70;99.90;;;;;;5105672;28;20028;-71
2023/07/17 00:13:42;;;;;;;6.93;4.13;;;18.60;99.90;;;;;;5109192;28;20069;-71
2023/07/17 00:16:07;;;;;;;7.72;3.83;;;18.70;99.90;;;;;;5107733;28;20031;-72
2023/07/17 00:18:34;;;;;;;6.68;3.67;;;18.70;99.90;;;;;;5108421;27;20064;-72
2023/07/17 00:21:01;;;;;;;7.00;3.88;;;18.80;99.90;;;;;;5102966;28;20036;-72
2023/07/17 00:23:27;;;;;;;8.65;3.78;;;18.70;99.90;;;;;;5106618;28;20676;-73
2023/07/17 00:25:53;;;;;;;9.65;4.22;;;18.70;99.90;;;;;;5107247;27;20036;-71
2023/07/17 00:28:18;;;;;;;7.15;4.20;;;18.60;99.90;;;;;;5106873;27;20077;-72
2023/07/17 00:30:44;;;;;;;7.30;4.43;;;18.60;99.90;;;;;;5107630;28;20044;-71
2023/07/17 00:33:09;;;;;;;6.82;4.15;;;18.60;99.90;;;;;;5119279;27;20408;-72
2023/07/17 00:35:35;;;;;;;9.68;4.55;;;18.60;99.90;;;;;;5107701;28;20135;-71
2023/07/17 00:38:01;;;;;;;14.23;4.18;;;18.50;99.90;;;;;;5109306;27;20030;-71
2023/07/17 00:40:27;;;;;;;9.23;3.72;;;18.50;99.90;;;;;;5106516;28;20135;-71
2023/07/17 00:43:01;;;;;;;7.85;3.63;;;18.40;99.90;;;;;;5115960;27;20341;-72
2023/07/17 00:45:31;;;;;;;7.45;3.65;;;18.40;99.90;;;;;;5106226;28;20638;-72
2023/07/17 00:47:57;;;;;;;8.65;4.07;;;18.30;99.90;;;;;;5108876;27;20036;-72
2023/07/17 00:50:23;;;;;;;7.47;3.70;;;18.30;99.90;;;;;;5103219;28;20043;-72
2023/07/17 00:52:49;;;;;;;9.40;4.05;;;18.20;99.90;;;;;;5107987;28;20042;-72
2023/07/17 00:55:15;;;;;;;6.00;3.83;;;18.20;99.90;;;;;;5106517;28;20032;-71
2023/07/17 00:57:41;;;;;;;7.72;4.13;;;18.20;99.90;;;;;;5106871;27;20053;-72
2023/07/17 01:00:08;;;;;;;8.65;4.68;;;18.10;99.90;;;;;;5108867;28;20039;-70
2023/07/17 01:02:37;;;;;;;10.20;3.58;;;18.00;99.90;;;;;;5106710;28;20106;-71
2023/07/17 01:05:03;;;;;;;6.88;3.97;;;18.00;99.90;;;;;;5108376;28;20036;-72
2023/07/17 01:07:29;;;;;;;9.98;4.18;;;17.90;99.90;;;;;;5107941;28;20107;-71
2023/07/17 01:09:54;;;;;;;6.55;3.92;;;17.80;99.90;;;;;;5105475;28;20126;-72
2023/07/17 01:12:20;;;;;;;10.10;4.57;;;17.80;99.90;;;;;;5106717;28;20119;-71
2023/07/17 01:14:47;;;;;;;8.93;4.57;;;17.80;99.90;;;;;;5105607;28;20513;-71
2023/07/17 01:17:12;;;;;;;10.85;4.75;;;17.70;99.90;;;;;;5106280;28;20028;-71
2023/07/17 01:19:38;;;;;;;15.10;4.47;;;17.80;99.90;;;;;;5083064;28;20047;-72
2023/07/17 01:22:11;;;;;;;10.68;4.55;;;17.80;99.90;;;;;;5108287;28;20095;-71
2023/07/17 01:24:36;;;;;;;7.60;3.92;;;17.80;99.90;;;;;;5106524;28;20111;-71
2023/07/17 01:27:02;;;;;;;8.95;4.10;;;17.80;99.90;;;;;;5099421;28;20119;-72
2023/07/17 01:29:28;;;;;;;7.88;4.45;;;17.80;99.90;;;;;;5106801;28;20038;-72
2023/07/17 01:31:53;;;;;;;10.20;4.38;;;17.80;99.90;;;;;;5113413;28;20028;-71
2023/07/17 01:34:19;;;;;;;7.93;4.50;;;17.70;99.90;;;;;;5088384;28;20503;-72
2023/07/17 01:36:45;;;;;;;7.32;4.20;;;17.60;99.90;;;;;;5101438;28;20028;-71
2023/07/17 01:39:10;;;;;;;9.05;4.50;;;17.60;99.90;;;;;;5107297;28;20041;-71
2023/07/17 01:41:36;;;;;;;10.82;4.32;;;17.70;99.90;;;;;;5107226;28;20118;-71
2023/07/17 01:44:02;;;;;;;8.93;4.18;;;17.70;99.90;;;;;;5107293;28;20482;-72
2023/07/17 01:46:27;;;;;;;9.75;4.90;;;17.70;99.90;;;;;;5106740;28;20115;-73
2023/07/17 01:48:53;;;;;;;8.90;4.70;;;17.60;99.90;;;;;;5105476;28;20453;-72
2023/07/17 01:51:19;;;;;;;8.00;4.30;;;17.60;99.90;;;;;;5107310;28;20821;-71
2023/07/17 01:53:45;;;;;;;6.43;3.83;;;17.60;99.90;;;;;;5107503;28;20114;-72
2023/07/17 01:56:10;;;;;;;9.70;4.30;;;17.70;99.90;;;;;;5100973;28;20028;-72
2023/07/17 01:58:36;;;;;;;7.70;3.88;;;17.70;99.90;;;;;;5088051;28;20120;-73
2023/07/17 02:01:03;;;;;;;9.27;4.18;;;17.50;99.90;;;;;;5096845;28;20039;-70
2023/07/17 02:03:28;;;;;;;10.63;3.88;;;17.40;99.90;;;;;;5109188;28;20488;-72
2023/07/17 02:05:54;;;;;;;10.80;4.03;;;17.30;99.90;;;;;;5108576;28;20114;-73
2023/07/17 02:08:20;;;;;;;9.95;4.40;;;17.20;99.90;;;;;;5111375;28;20034;-73
2023/07/17 02:10:49;;;;;;;8.75;4.18;;;17.30;99.90;;;;;;5111434;28;20084;-72
2023/07/17 02:13:15;;;;;;;8.43;4.07;;;17.30;99.90;;;;;;5111087;28;20734;-72
2023/07/17 02:15:41;;;;;;;9.30;4.78;;;17.40;99.90;;;;;;5108408;28;20032;-71
2023/07/17 02:18:06;;;;;;;6.47;4.10;;;17.40;99.90;;;;;;5109994;28;20042;-71
2023/07/17 02:20:32;;;;;;;12.02;4.22;;;17.40;99.90;;;;;;5106916;28;20153;-71
2023/07/17 02:22:58;;;;;;;10.73;4.25;;;17.40;99.90;;;;;;5107773;28;20023;-72
2023/07/17 02:25:23;;;;;;;13.52;4.68;;;17.20;99.90;;;;;;5107059;27;20427;-72
2023/07/17 02:27:49;;;;;;;7.53;3.85;;;17.30;99.90;;;;;;5108967;28;20035;-73
2023/07/17 02:30:15;;;;;;;6.75;4.03;;;17.30;99.90;;;;;;5107096;28;20043;-71
2023/07/17 02:32:40;;;;;;;8.10;4.28;;;17.30;99.90;;;;;;5103120;28;20053;-72
2023/07/17 02:35:07;;;;;;;9.85;4.53;;;17.40;99.90;;;;;;5103135;28;20031;-72
2023/07/17 02:37:32;;;;;;;7.03;4.03;;;17.40;99.90;;;;;;5110597;28;20076;-71
2023/07/17 02:39:58;;;;;;;9.90;4.32;;;17.30;99.90;;;;;;5106030;28;20098;-71
2023/07/17 02:42:23;;;;;;;9.82;4.05;;;17.30;99.90;;;;;;5111331;27;20024;-72
2023/07/17 02:44:49;;;;;;;8.85;4.03;;;17.50;99.90;;;;;;5112453;27;20024;-71
2023/07/17 02:47:16;;;;;;;15.40;4.18;;;17.40;99.90;;;;;;5114054;27;20444;-72
2023/07/17 02:49:42;;;;;;;8.80;4.57;;;17.40;99.90;;;;;;5106185;27;20078;-72
2023/07/17 02:52:08;;;;;;;7.18;4.30;;;17.40;99.90;;;;;;5103216;28;20039;-71
2023/07/17 02:54:36;;;;;;;12.02;4.70;;;17.40;99.90;;;;;;5116131;27;20036;-71
2023/07/17 02:57:06;;;;;;;10.55;4.72;;;17.30;99.90;;;;;;5111193;28;20028;-73
2023/07/17 02:59:32;;;;;;;8.65;4.30;;;17.10;99.90;;;;;;5102564;28;20035;-73
2023/07/17 03:01:58;;;;;;;8.95;4.45;;;17.00;99.90;;;;;;5108968;28;20027;-72
2023/07/17 03:04:25;;;;;;;7.95;4.13;;;17.00;99.90;;;;;;5107798;28;20023;-72
2023/07/17 03:06:51;;;;;;;8.13;4.40;;;17.00;99.90;;;;;;5108879;28;20047;-73
2023/07/17 03:09:16;;;;;;;8.45;4.50;;;17.10;99.90;;;;;;5096569;27;20074;-72
2023/07/17 03:11:42;;;;;;;8.20;4.50;;;17.10;99.90;;;;;;5113684;27;20031;-72
2023/07/17 03:14:08;;;;;;;8.93;4.68;;;17.10;99.90;;;;;;5109562;28;20035;-73
2023/07/17 03:16:33;;;;;;;11.45;4.68;;;17.20;99.90;;;;;;5108937;28;20016;-74
2023/07/17 03:18:59;;;;;;;7.60;4.47;;;17.30;99.90;;;;;;5109992;28;20539;-73
2023/07/17 03:21:25;;;;;;;11.40;4.80;;;17.40;99.90;;;;;;5109447;28;20035;-74
2023/07/17 03:23:50;;;;;;;8.43;4.85;;;17.50;99.90;;;;;;5113000;27;20042;-73
2023/07/17 03:26:16;;;;;;;9.32;4.70;;;17.50;99.90;;;;;;5112494;27;20027;-72
2023/07/17 03:28:42;;;;;;;8.85;4.85;;;17.50;99.90;;;;;;5110198;28;20038;-73
2023/07/17 03:31:07;;;;;;;7.82;4.13;;;17.60;99.90;;;;;;5110552;28;20368;-73
2023/07/17 03:33:33;;;;;;;9.60;4.13;;;17.70;99.90;;;;;;5107749;27;20356;-74
2023/07/17 03:35:59;;;;;;;6.60;4.00;;;17.50;99.90;;;;;;5117013;27;20028;-73
2023/07/17 03:38:25;;;;;;;9.90;4.05;;;17.50;99.90;;;;;;5109400;28;20028;-73
2023/07/17 03:40:50;;;;;;;6.25;3.75;;;17.50;99.90;;;;;;5111912;27;20416;-73
2023/07/17 03:43:16;;;;;;;9.50;3.83;;;17.30;99.90;;;;;;5109131;28;20354;-73
2023/07/17 03:45:41;;;;;;;6.40;3.95;;;17.30;99.90;;;;;;5108522;28;20379;-73
2023/07/17 03:48:07;;;;;;;7.63;3.83;;;17.30;99.90;;;;;;5109137;28;20488;-73
2023/07/17 03:50:33;;;;;;;7.82;3.95;;;17.40;99.90;;;;;;5107691;28;20028;-74
2023/07/17 03:52:58;;;;;;;7.18;4.28;;;17.40;99.90;;;;;;5107712;28;20086;-73
2023/07/17 03:55:24;;;;;;;13.85;4.40;;;17.40;99.90;;;;;;5114619;27;20439;-73
2023/07/17 03:57:49;;;;;;;8.43;4.47;;;17.30;99.90;;;;;;5109214;28;20661;-74
2023/07/17 04:00:15;;;;;;;7.28;4.13;;;17.30;99.90;;;;;;5110214;28;20110;-73
2023/07/17 04:02:44;;;;;;;9.93;4.45;;;17.20;99.90;;;;;;5109043;28;20479;-73
2023/07/17 04:05:10;;;;;;;11.55;4.70;;;17.30;99.90;;;;;;5109645;28;20047;-73
2023/07/17 04:07:36;;;;;;;10.18;4.50;;;17.30;99.90;;;;;;5106975;28;20031;-73
2023/07/17 04:10:03;;;;;;;8.73;4.70;;;17.30;99.90;;;;;;5116600;27;20067;-73
2023/07/17 04:12:29;;;;;;;9.05;4.68;;;17.40;99.90;;;;;;5103624;28;20035;-72
2023/07/17 04:14:54;;;;;;;9.60;4.45;;;17.40;99.90;;;;;;5098496;28;20040;-73
2023/07/17 04:17:20;;;;;;;9.90;4.60;;;17.40;99.90;;;;;;5105300;28;20035;-72
2023/07/17 04:19:46;;;;;;;9.80;4.93;;;17.40;99.90;;;;;;5108288;28;20031;-73
2023/07/17 04:22:11;;;;;;;13.48;4.72;;;17.40;99.90;;;;;;5107786;28;20039;-73
2023/07/17 04:24:37;;;;;;;12.27;5.05;;;17.40;99.90;;;;;;5108384;28;20039;-73
2023/07/17 04:27:03;;;;;;;12.07;5.20;;;17.50;99.90;;;;;;5108958;27;20360;-73
2023/07/17 04:29:28;;;;;;;9.38;4.53;;;17.50;99.90;;;;;;5090038;28;20032;-74
2023/07/17 04:31:54;;;;;;;11.85;4.63;;;17.50;99.90;;;;;;5108292;28;20039;-73
2023/07/17 04:34:20;;;;;;;11.45;4.88;;;17.60;99.90;;;;;;5108596;28;20436;-72
2023/07/17 04:36:46;;;;;;;10.35;5.18;;;17.60;99.90;;;;;;5088508;28;20039;-73
2023/07/17 04:39:12;;;;;;;9.35;4.38;;;17.70;99.90;;;;;;5107744;28;20023;-74
2023/07/17 04:41:38;;;;;;;10.05;4.70;;;17.70;99.90;;;;;;5104143;28;20046;-73
2023/07/17 04:44:04;;;;;;;9.35;5.13;;;17.70;99.90;;;;;;5109552;27;20032;-73
2023/07/17 04:46:29;;;;;;;11.57;4.78;;;17.70;99.90;;;;;;5089052;28;20035;-73
2023/07/17 04:48:55;;;;;;;8.88;5.07;;;17.70;99.90;;;;;;5108309;28;20372;-74
2023/07/17 04:51:21;;;;;;;12.93;5.18;;;17.80;99.90;;;;;;5107757;28;20547;-73
2023/07/17 04:53:47;;;;;;;10.25;5.20;;;17.80;99.90;;;;;;5107694;27;20059;-73
2023/07/17 04:56:12;;;;;;;10.27;4.80;;;17.90;99.90;;;;;;5096910;28;20028;-73
2023/07/17 04:58:38;;;;;;;12.88;5.50;;;18.00;99.90;;;;;;5107538;28;20032;-73
2023/07/17 05:01:05;;;;;;;10.07;4.70;;;18.00;99.90;;;;;;5112029;27;20128;-72
2023/07/17 05:03:31;;;;;;;13.15;4.90;;;18.10;99.90;;;;;;5105132;28;20038;-72
2023/07/17 05:05:57;;;;;;;7.72;4.80;;;18.20;99.90;;;;;;5084084;28;20407;-72
2023/07/17 05:08:25;;;;;;;8.20;4.35;;;18.10;99.90;;;;;;5108081;28;20042;-71
2023/07/17 05:10:58;;;;;;;11.23;4.32;;;18.10;99.90;;;;;;5105903;28;20110;-72
2023/07/17 05:13:24;;;;;;;7.03;4.53;;;18.10;99.90;;;;;;5108032;28;20429;-70
2023/07/17 05:15:50;;;;;;;8.93;4.60;;;18.10;99.90;;;;;;5104230;28;20673;-73
2023/07/17 05:18:16;;;;;;;10.23;4.30;;;18.20;99.90;;;;;;5103955;28;20107;-71
2023/07/17 05:20:47;;;;;;;9.05;5.00;;;18.40;99.90;;;;;;5103250;28;20491;-71
2023/07/17 05:23:13;;;;;;;10.63;4.90;;;18.50;99.90;;;;;;5085516;28;20369;-72
2023/07/17 05:25:39;;;;;;;11.55;4.93;;;18.70;99.90;;;;;;5108108;28;20080;-70
2023/07/17 05:28:05;;;;;;;10.48;4.55;;;18.90;99.90;;;;;;5109590;28;20046;-71
2023/07/17 05:30:34;;;;;;;8.35;4.30;;;19.10;99.90;;;;;;5104522;28;20035;-73
2023/07/17 05:33:01;;;;;;;10.57;4.72;;;19.10;99.90;;;;;;5106900;28;20064;-73
2023/07/17 05:35:27;;;;;;;14.05;5.28;;;19.10;99.90;;;;;;5106509;27;20088;-73
2023/07/17 05:37:53;;;;;;;13.65;4.57;;;18.90;99.90;;;;;;5111081;28;20399;-74
2023/07/17 05:40:19;;;;;;;9.48;4.47;;;18.90;99.90;;;;;;5102373;27;20479;-74
2023/07/17 05:42:45;;;;;;;12.40;4.50;;;18.80;99.90;;;;;;5111410;28;20047;-75
2023/07/17 05:45:10;;;;;;;11.40;4.10;;;18.70;99.90;;;;;;5111737;28;20037;-73
2023/07/17 05:47:37;;;;;;;9.07;4.15;;;18.70;99.90;;;;;;5110513;28;20031;-74
2023/07/17 05:50:04;;;;;;;8.88;4.50;;;18.70;99.90;;;;;;5106647;27;20045;-79
2023/07/17 05:52:29;;;;;;;12.45;4.20;;;18.80;99.90;;;;;;5110566;28;20347;-76
2023/07/17 05:54:55;;;;;;;9.40;3.72;;;19.10;99.90;;;;;;5116259;27;20061;-75
2023/07/17 05:57:21;;;;;;;11.13;4.20;;;19.20;99.90;;;;;;5112369;28;20472;-75
2023/07/17 05:59:46;;;;;;;10.93;3.80;;;19.30;99.90;;;;;;5111689;28;20084;-77
2023/07/17 06:02:12;;;;;;;8.88;3.92;;;19.40;99.90;;;;;;5117121;27;20275;-75
2023/07/17 06:04:37;;;;;;;11.68;4.03;;;19.40;99.90;;;;;;5111849;28;20030;-77
2023/07/17 06:07:04;;;;;;;6.85;4.03;;;19.60;99.90;;;;;;5111997;28;20019;-75
2023/07/17 06:09:30;;;;;;;7.53;3.85;;;19.80;99.90;;;;;;5111526;28;20066;-76
2023/07/17 06:11:56;;;;;;;8.88;3.88;;;19.80;99.90;;;;;;5112140;28;20063;-74
2023/07/17 06:14:21;;;;;;;8.27;3.22;;;19.70;99.90;;;;;;5111998;28;20059;-75
2023/07/17 06:16:47;;;;;;;9.55;3.65;;;19.60;99.90;;;;;;5118126;27;20099;-75
2023/07/17 06:19:13;;;;;;;7.80;3.83;;;19.60;99.90;;;;;;5111914;28;20031;-76
2023/07/17 06:21:39;;;;;;;12.20;3.90;;;19.60;99.90;;;;;;5092506;28;20030;-76
2023/07/17 06:24:07;;;;;;;8.18;3.85;;;19.60;99.90;;;;;;5098525;27;20079;-77
2023/07/17 06:26:33;;;;;;;11.63;4.20;;;19.80;99.90;;;;;;5111053;28;20028;-75
2023/07/17 06:28:59;;;;;;;6.90;3.65;;;19.90;99.90;;;;;;5109948;28;20138;-77
2023/07/17 06:31:25;;;;;;;8.43;3.78;;;19.80;99.90;;;;;;5112183;27;20118;-76
2023/07/17 06:33:50;;;;;;;10.52;4.00;;;19.70;99.90;;;;;;5108324;28;20110;-76
2023/07/17 06:36:16;;;;;;;10.38;4.22;;;19.70;99.90;;;;;;5108545;27;20463;-75
2023/07/17 06:38:42;;;;;;;8.70;3.70;;;19.70;99.90;;;;;;5104411;27;20059;-74
2023/07/17 06:41:07;;;;;;;8.30;3.42;;;20.10;99.90;;;;;;5106073;27;20140;-74
2023/07/17 06:43:33;;;;;;;11.25;3.97;;;20.30;99.90;;;;;;5084341;27;20035;-75
2023/07/17 06:45:59;;;;;;;8.88;4.07;;;20.50;99.90;;;;;;5107318;27;20108;-75
2023/07/17 06:48:25;;;;;;;11.10;3.88;;;20.50;99.90;;;;;;5102509;27;20088;-75
2023/07/17 06:50:50;;;;;;;9.80;3.95;;;20.60;99.90;;;;;;5107470;27;20128;-74
2023/07/17 06:53:16;;;;;;;10.77;3.60;;;20.40;99.90;;;;;;5108716;27;20031;-74
2023/07/17 06:55:42;;;;;;;8.73;3.80;;;20.30;99.90;;;;;;5101607;27;20533;-75
2023/07/17 06:58:08;;;;;;;7.63;4.10;;;20.40;99.90;;;;;;5111689;27;20023;-75
2023/07/17 07:00:33;;;;;;;10.50;3.90;;;20.60;99.90;;;;;;5107431;27;20046;-73
2023/07/17 07:02:59;;;;;;;11.13;4.28;;;20.70;99.90;;;;;;5105480;27;20046;-75
2023/07/17 07:05:25;;;;;;;11.05;3.72;;;20.80;99.90;;;;;;5109238;28;20039;-75
2023/07/17 07:07:51;;;;;;;9.88;3.85;;;20.90;99.90;;;;;;5102830;28;20144;-76
2023/07/17 07:10:16;;;;;;;12.43;3.90;;;21.10;99.90;;;;;;5107061;28;20039;-75
2023/07/17 07:12:42;;;;;;;10.20;4.15;;;21.20;99.90;;;;;;5090416;28;20050;-76
2023/07/17 07:15:09;;;;;;;18.65;4.03;;;21.20;99.90;;;;;;5109151;28;20107;-76
2023/07/17 07:17:34;;;;;;;16.80;3.80;;;21.40;99.90;;;;;;5107405;28;20790;-75
2023/07/17 07:20:00;;;;;;;7.47;3.85;;;21.50;99.90;;;;;;5113308;27;20106;-75
2023/07/17 07:22:26;;;;;;;13.45;4.00;;;21.60;99.90;;;;;;5112650;27;20103;-77
2023/07/17 07:24:51;;;;;;;9.40;3.70;;;21.50;99.90;;;;;;5110163;27;20524;-75
2023/07/17 07:27:17;;;;;;;6.53;3.70;;;21.60;99.90;;;;;;5109734;28;20099;-78
2023/07/17 07:29:42;;;;;;;18.25;4.30;;;21.70;99.90;;;;;;5108483;27;20495;-75
2023/07/17 07:32:08;;;;;;;10.25;4.13;;;21.80;99.90;;;;;;5109739;28;20027;-76
2023/07/17 07:34:37;;;;;;;6.40;3.88;;;21.80;99.90;;;;;;5109837;27;20023;-74
2023/07/17 07:37:03;;;;;;;9.05;4.10;;;21.90;99.90;;;;;;5092026;28;20028;-75
2023/07/17 07:39:29;;;;;;;11.10;4.20;;;22.10;99.90;;;;;;5110213;28;20028;-75
2023/07/17 07:41:54;;;;;;;12.13;4.63;;;22.20;99.90;;;;;;5109565;28;20023;-75
2023/07/17 07:44:20;;;;;;;13.20;4.20;;;22.20;99.90;;;;;;5110217;28;20507;-73
2023/07/17 07:46:45;;;;;;;16.65;4.70;;;22.20;99.90;;;;;;5090803;28;20077;-75
2023/07/17 07:49:11;;;;;;;11.07;4.15;;;22.30;99.90;;;;;;5109770;28;20058;-74
2023/07/17 07:51:37;;;;;;;12.60;4.20;;;22.50;99.90;;;;;;5109188;28;20035;-74
2023/07/17 07:54:04;;;;;;;11.48;4.38;;;22.70;99.90;;;;;;5114678;27;20036;-74
2023/07/17 07:56:29;;;;;;;11.23;3.80;;;22.40;99.90;;;;;;5110332;28;20028;-75
2023/07/17 07:58:55;;;;;;;15.60;4.45;;;22.00;99.90;;;;;;5109022;28;20038;-75
2023/07/17 08:01:20;;;;;;;13.18;4.88;;;21.70;99.90;;;;;;5091768;28;20051;-75
2023/07/17 08:03:46;;;;;;;10.07;4.60;;;21.70;99.90;;;;;;5109025;28;20391;-77
2023/07/17 08:06:12;;;;;;;16.02;4.50;;;21.80;99.90;;;;;;5109958;28;20055;-76
2023/07/17 08:08:38;;;;;;;12.30;3.97;;;22.20;99.90;;;;;;5091403;27;21288;-77
2023/07/17 08:11:03;;;;;;;12.38;4.70;;;22.30;99.90;;;;;;5111601;27;20107;-74
2023/07/17 08:13:29;;;;;;;12.52;4.28;;;22.50;99.90;;;;;;5109754;28;20038;-74
2023/07/17 08:15:56;;;;;;;9.43;4.65;;;22.70;99.90;;;;;;5108936;28;20034;-76
2023/07/17 08:18:22;;;;;;;13.70;5.47;;;22.50;99.90;;;;;;5108051;28;20118;-77
2023/07/17 08:20:48;;;;;;;7.93;4.20;;;22.50;99.90;;;;;;5118921;27;20123;-74
2023/07/17 08:23:13;;;;;;;10.93;4.13;;;22.40;99.90;;;;;;5112344;27;20076;-74
2023/07/17 08:25:39;;;;;;;12.57;4.15;;;22.40;99.90;;;;;;5115612;27;20038;-73
2023/07/17 08:28:05;;;;;;;11.43;4.25;;;22.60;99.90;;;;;;5109425;28;20027;-76
2023/07/17 08:30:30;;;;;;;11.82;3.85;;;22.80;99.90;;;;;;5108225;27;20115;-75
2023/07/17 08:32:56;;;;;;;11.00;4.40;;;22.80;99.90;;;;;;5108499;28;20176;-75
2023/07/17 08:35:22;;;;;;;10.65;4.50;;;23.00;99.90;;;;;;5109551;28;20540;-76
2023/07/17 08:37:47;;;;;;;13.30;3.85;;;23.20;99.90;;;;;;5108097;28;20048;-74
2023/07/17 08:40:13;;;;;;;14.27;4.43;;;23.20;99.90;;;;;;5109782;28;20055;-76
2023/07/17 08:42:44;;;;;;;9.70;3.78;;;23.30;99.90;;;;;;5089964;28;20028;-75
2023/07/17 08:45:11;;;;;;;18.65;4.50;;;23.00;99.90;;;;;;5108455;28;20035;-75
2023/07/17 08:47:37;;;;;;;9.73;4.30;;;22.70;99.90;;;;;;5107764;28;20134;-76
2023/07/17 08:50:03;;;;;;;13.55;4.40;;;22.80;99.90;;;;;;5109065;28;20157;-75
2023/07/17 08:52:31;;;;;;;10.63;4.32;;;23.30;99.90;;;;;;5108938;28;20472;-76
2023/07/17 08:54:57;;;;;;;10.65;4.10;;;23.20;99.90;;;;;;5111381;27;20027;-75
2023/07/17 08:57:23;;;;;;;10.98;4.55;;;23.50;99.90;;;;;;5109135;28;20027;-74
2023/07/17 08:59:50;;;;;;;9.65;4.63;;;23.50;99.90;;;;;;5107770;28;20028;-75
2023/07/17 09:02:15;;;;;;;8.55;4.28;;;23.50;99.90;;;;;;5108918;28;20032;-75
2023/07/17 09:04:41;;;;;;;12.52;4.35;;;23.60;99.90;;;;;;5090286;28;20452;-76
2023/07/17 09:07:07;;;;;;;9.43;4.25;;;23.40;99.90;;;;;;5108743;28;20116;-75
2023/07/17 09:09:32;;;;;;;9.38;4.07;;;23.40;99.90;;;;;;5109082;28;20032;-75
2023/07/17 09:12:11;;;;;;;11.68;4.47;;;23.10;99.90;;;;;;5113452;27;20027;-75
2023/07/17 09:14:38;;;;;;;13.85;4.25;;;23.00;99.90;;;;;;5102122;28;20035;-74
2023/07/17 09:17:07;;;;;;;11.82;4.93;;;23.00;99.90;;;;;;5090015;28;20066;-74
2023/07/17 09:19:34;;;;;;;7.20;4.63;;;22.80;99.90;;;;;;5108005;28;20048;-75
2023/07/17 09:22:02;;;;;;;13.30;4.60;;;22.50;99.90;;;;;;5108242;28;20030;-75
2023/07/17 09:24:28;;;;;;;12.80;5.00;;;22.50;99.90;;;;;;5094993;28;20020;-75
2023/07/17 09:26:57;;;;;;;9.07;5.00;;;22.50;99.90;;;;;;5108120;28;20031;-74
2023/07/17 09:29:23;;;;;;;11.25;4.68;;;22.50;99.90;;;;;;5108609;28;20039;-76
2023/07/17 09:31:50;;;;;;;13.77;4.63;;;22.50;99.90;;;;;;5094770;28;20019;-74
2023/07/17 09:34:16;;;;;;;8.38;4.70;;;22.50;99.90;;;;;;5112327;28;20046;-73
2023/07/17 09:36:42;;;;;;;9.55;5.00;;;22.80;99.90;;;;;;5107474;28;20027;-74
2023/07/17 09:39:09;;;;;;;13.65;4.72;;;22.90;99.90;;;;;;5108575;28;20081;-78
2023/07/17 09:41:35;;;;;;;11.18;5.22;;;23.00;99.70;;;;;;5108624;28;20085;-76
2023/07/17 09:44:05;;;;;;;10.05;4.90;;;22.90;99.90;;;;;;5108380;28;20027;-74
2023/07/17 09:46:35;;;;;;;11.68;4.82;;;22.90;99.90;;;;;;5108548;28;20438;-76
2023/07/17 09:49:03;;;;;;;14.48;5.07;;;23.20;99.90;;;;;;5112791;28;20059;-74
2023/07/17 09:51:30;;;;;;;13.73;5.32;;;23.50;99.70;;;;;;5108415;28;20040;-75
2023/07/17 09:53:57;;;;;;;13.07;5.03;;;23.70;98.80;;;;;;5111961;28;20074;-74
2023/07/17 09:56:27;;;;;;;10.18;4.95;;;23.90;97.70;;;;;;5109811;28;20451;-74
2023/07/17 09:58:58;;;;;;;9.95;5.50;;;24.10;98.20;;;;;;5107989;28;20023;-73
2023/07/17 10:01:25;;;;;;;15.27;5.38;;;24.60;98.60;;;;;;5108009;28;20118;-73
2023/07/17 10:03:51;;;;;;;13.10;5.10;;;24.70;96.00;;;;;;5110904;28;20452;-75
2023/07/17 10:06:20;;;;;;;15.18;5.40;;;24.70;94.30;;;;;;5108492;28;20035;-74
2023/07/17 10:08:50;;;;;;;14.82;5.63;;;24.70;93.50;;;;;;5107381;28;20032;-77
2023/07/17 10:11:17;;;;;;;9.85;5.10;;;25.10;93.90;;;;;;5108262;28;20126;-75
2023/07/17 10:13:49;;;;;;;10.45;5.25;;;25.10;92.40;;;;;;5089275;28;20027;-76
2023/07/17 10:16:17;;;;;;;10.60;5.15;;;25.00;92.30;;;;;;5108001;28;20020;-75
2023/07/17 10:18:50;;;;;;;13.57;5.30;;;24.90;93.10;;;;;;5110812;28;20084;-74
2023/07/17 10:21:19;;;;;;;11.35;5.60;;;25.20;92.70;;;;;;5108284;28;20028;-74
2023/07/17 10:23:47;;;;;;;9.45;4.93;;;25.40;91.70;;;;;;5104535;27;20030;-74
2023/07/17 10:26:19;;;;;;;13.45;5.20;;;25.20;90.90;;;;;;5116481;27;20233;-75
2023/07/17 10:28:49;;;;;;;10.68;5.38;;;25.00;91.30;;;;;;5111031;28;20023;-76
2023/07/17 10:31:28;;;;;;;12.57;5.20;;;24.70;90.70;;;;;;5111926;28;20028;-74
2023/07/17 10:34:04;;;;;;;11.73;5.20;;;24.60;90.80;;;;;;5104819;28;20027;-74
2023/07/17 10:36:42;;;;;;;10.85;5.32;;;24.80;91.20;;;;;;5093364;28;20028;-74
2023/07/17 10:39:08;;;;;;;15.25;5.07;;;25.10;91.40;;;;;;5093439;28;20043;-76
2023/07/17 10:41:36;;;;;;;9.73;5.53;;;25.10;90.00;;;;;;5111569;28;20038;-74
2023/07/17 10:44:07;;;;;;;10.45;4.97;;;25.00;89.60;;;;;;5092645;28;20781;-76
2023/07/17 10:46:35;;;;;;;11.40;5.53;;;25.20;90.50;;;;;;5111457;28;20023;-75
2023/07/17 10:49:11;;;;;;;12.05;5.50;;;25.30;86.90;;;;;;5110116;28;20071;-77
2023/07/17 10:51:48;;;;;;;13.88;5.90;;;25.00;86.00;;;;;;5111041;28;20043;-73
2023/07/17 10:54:15;;;;;;;9.77;5.57;;;24.70;89.90;;;;;;5112293;27;20031;-74
2023/07/17 10:56:43;;;;;;;12.82;5.45;;;24.70;89.70;;;;;;5110965;28;20043;-76
2023/07/17 10:59:09;;;;;;;14.70;5.43;;;24.60;89.10;;;;;;5110239;28;20398;-75
2023/07/17 11:01:35;;;;;;;8.75;5.35;;;24.70;90.00;;;;;;5110723;28;20510;-75
2023/07/17 11:04:00;;;;;;;10.10;5.70;;;25.00;88.00;;;;;;5110461;28;20095;-76
2023/07/17 11:06:27;;;;;;;12.43;5.60;;;25.20;89.10;;;;;;5111627;28;20015;-74
2023/07/17 11:08:54;;;;;;;10.00;5.30;;;25.10;87.50;;;;;;5117194;27;20530;-76
2023/07/17 11:11:20;;;;;;;11.48;5.03;;;25.00;87.90;;;;;;5111067;28;20043;-77
2023/07/17 11:13:47;;;;;;;14.75;6.40;;;25.10;86.60;;;;;;5117035;27;20035;-75
2023/07/17 11:16:13;;;;;;;10.82;5.38;;;25.00;87.30;;;;;;5110912;28;20528;-75
2023/07/17 11:18:50;;;;;;;11.98;5.28;;;24.90;87.80;;;;;;5110818;28;20036;-75
2023/07/17 11:21:17;;;;;;;14.00;5.50;;;25.10;87.20;;;;;;5111091;28;20041;-77
2023/07/17 11:23:54;;;;;;;10.35;6.05;;;25.10;86.90;;;;;;5111448;27;20050;-74
2023/07/17 11:26:23;;;;;;;9.80;5.20;;;25.10;88.20;;;;;;5093217;28;20122;-73
2023/07/17 11:28:53;;;;;;;9.93;5.50;;;25.20;87.60;;;;;;5108602;28;20480;-77
2023/07/17 11:31:20;;;;;;;11.35;5.95;;;25.30;86.70;;;;;;5110920;28;20027;-78
2023/07/17 11:33:58;;;;;;;12.70;6.10;;;25.40;85.50;;;;;;5109346;28;20047;-75
2023/07/17 11:36:31;;;;;;;12.15;5.90;;;25.60;87.40;;;;;;5110714;28;20035;-77
2023/07/17 11:39:00;;;;;;;17.25;5.68;;;25.60;88.40;;;;;;5109460;28;20467;-75
2023/07/17 11:41:25;;;;;;;12.73;5.18;;;26.10;87.70;;;;;;5110312;28;20037;-76
2023/07/17 11:43:58;;;;;;;18.88;5.03;;;26.40;82.60;;;;;;5108780;28;20115;-76
2023/07/17 11:46:23;;;;;;;13.57;5.65;;;26.00;81.50;;;;;;5110452;28;20515;-76
2023/07/17 11:48:53;;;;;;;16.17;5.53;;;26.00;84.90;;;;;;5109557;28;20043;-74
2023/07/17 11:51:24;;;;;;;14.57;5.57;;;26.10;87.20;;;;;;5110752;27;20031;-76
2023/07/17 11:53:56;;;;;;;10.27;5.55;;;25.90;81.80;;;;;;5112205;27;20491;-76
2023/07/17 11:56:37;;;;;;;11.85;5.68;;;26.00;85.60;;;;;;5091977;28;20097;-74
2023/07/17 11:59:03;;;;;;;11.60;5.30;;;25.60;81.00;;;;;;5115105;27;20032;-77
2023/07/17 12:01:29;;;;;;;12.20;5.50;;;25.60;80.90;;;;;;5110222;28;20024;-76
2023/07/17 12:03:55;;;;;;;17.58;5.90;;;25.50;83.10;;;;;;5109022;28;20028;-77
2023/07/17 12:06:21;;;;;;;9.30;5.18;;;25.40;81.90;;;;;;5110059;28;20067;-75
2023/07/17 12:08:47;;;;;;;13.52;5.57;;;25.40;85.80;;;;;;5109433;28;20026;-77
2023/07/17 12:11:13;;;;;;;12.60;5.07;;;25.60;82.30;;;;;;5109661;28;20038;-75
2023/07/17 12:13:38;;;;;;;11.77;5.57;;;25.60;82.70;;;;;;5109185;28;20107;-77
2023/07/17 12:16:04;;;;;;;10.73;5.13;;;25.50;84.10;;;;;;5108697;28;20107;-78
2023/07/17 12:18:30;;;;;;;8.07;4.97;;;25.40;84.90;;;;;;5109866;28;20036;-77
2023/07/17 12:20:56;;;;;;;9.35;5.20;;;25.60;86.30;;;;;;5090279;28;20031;-75
2023/07/17 12:23:23;;;;;;;12.13;5.75;;;25.70;83.80;;;;;;5109818;28;20435;-74
2023/07/17 12:25:49;;;;;;;12.05;5.85;;;25.80;82.30;;;;;;5112850;27;20365;-75
2023/07/17 12:28:15;;;;;;;11.27;5.20;;;25.60;85.90;;;;;;5108443;28;20040;-75
2023/07/17 12:30:41;;;;;;;11.52;5.35;;;25.70;83.70;;;;;;5109131;28;20046;-74
2023/07/17 12:33:07;;;;;;;12.35;5.57;;;25.80;82.40;;;;;;5108455;28;20656;-74
2023/07/17 12:35:33;;;;;;;10.80;5.57;;;25.90;82.70;;;;;;5112104;27;20035;-76
2023/07/17 12:37:59;;;;;;;13.45;5.50;;;26.20;85.90;;;;;;5107819;27;20059;-74